»·PEaware :: N285 KEUG-KPDX

N285 :: KEUG-KPDX

FLIGHT INFORMATION

Flight Status: Arrived
Operator: Privately registered:
United States
More flights under this callsign
Pilot: Leo F. (613)
Aircraft: BEECH AIRCRAFT SUPER KING AIR COMMUTER
(BE20)
More flights by this aircraft type
Origin: KEUG Mahlon Sweet
United States
Destination: KPDX Portland Intl
United States
More flights between these airports :: More routes between these airports
Route: EUG1 CVO V495 UBG
File this flight plan on PilotEdge
Remarks:
Altitude:
(Current/Filed)
10,000ft
Speed:
(Current/Filed)
270kts
Departed: 01-Oct-18 09:44 AM
Arrived: 01-Oct-18 10:23 AM
Distance/Time
Traveled:
92nm/0:39
Distance/Time
To Go:
Arrived

Flight Plot

Page will automatically refresh every two minutes.

Flight plan parsing failed; only flown route is shown


Map Options




Map Legend


Flown Route
Filed Route
Departure Airport
Arrival Airport
Navaid (VOR, NDB)
Fix

Horizontal Profiles

Position Reports

Time Latitude Longitude Heading Altitude Ground
Speed
01-Oct-18 09:24 44.113871 -123.214857 325 373ft 0kts
01-Oct-18 09:25 44.113871 -123.214857 325 373ft 0kts
01-Oct-18 09:26 44.113871 -123.214857 325 373ft 0kts
01-Oct-18 09:27 44.113871 -123.214857 325 373ft 0kts
01-Oct-18 09:28 44.113871 -123.214857 325 373ft 0kts
01-Oct-18 09:29 44.113871 -123.214857 325 373ft 0kts
01-Oct-18 09:30 44.113871 -123.214857 325 373ft 0kts
01-Oct-18 09:31 44.113871 -123.214857 325 373ft 0kts
01-Oct-18 09:32 44.113871 -123.214857 325 373ft 0kts
01-Oct-18 09:33 44.113871 -123.214857 325 373ft 0kts
01-Oct-18 09:34 44.113871 -123.214857 325 373ft 0kts
01-Oct-18 09:35 44.113871 -123.214858 325 373ft 0kts
01-Oct-18 09:36 44.114654 -123.215586 323 373ft 4kts
01-Oct-18 09:37 44.115567 -123.217044 346 373ft 7kts
01-Oct-18 09:38 44.120368 -123.217175 357 373ft 20kts
01-Oct-18 09:39 44.128547 -123.217224 357 373ft 24kts
01-Oct-18 09:40 44.133391 -123.217264 358 373ft 3kts
01-Oct-18 09:41 44.135197 -123.217860 265 373ft 0kts
01-Oct-18 09:42 44.135197 -123.217860 265 373ft 0kts
01-Oct-18 09:43 44.135197 -123.217860 265 373ft 0kts
01-Oct-18 09:44 44.135172 -123.218290 265 373ft 3kts
01-Oct-18 09:45 44.134832 -123.219140 177 373ft 0kts
01-Oct-18 09:46 44.119247 -123.218932 177 668ft 131kts
01-Oct-18 09:47 44.067702 -123.216840 177 2960ft 179kts
01-Oct-18 09:48 44.024895 -123.212354 176 4554ft 183kts
01-Oct-18 09:49 43.999641 -123.251833 297 6417ft 179kts
01-Oct-18 09:50 44.045802 -123.283681 352 8067ft 200kts
01-Oct-18 09:51 44.104547 -123.282128 356 9032ft 231kts
01-Oct-18 09:52 44.168746 -123.283857 353 9937ft 229kts
01-Oct-18 09:53 44.236104 -123.284808 356 10015ft 251kts
01-Oct-18 09:54 44.307040 -123.288082 356 10002ft 258kts
01-Oct-18 09:55 44.379301 -123.289945 356 10000ft 260kts
01-Oct-18 09:56 44.451746 -123.289106 352 10004ft 259kts
01-Oct-18 09:57 44.523950 -123.285538 10 10009ft 263kts
01-Oct-18 09:58 44.595083 -123.259880 12 9999ft 263kts
01-Oct-18 09:59 44.665795 -123.233451 12 9996ft 262kts
01-Oct-18 10:00 44.736351 -123.207322 12 9991ft 262kts
01-Oct-18 10:01 44.806753 -123.181534 12 9986ft 262kts
01-Oct-18 10:02 44.877440 -123.155502 12 9983ft 263kts
01-Oct-18 10:03 44.950392 -123.128589 12 9982ft 277kts
01-Oct-18 10:04 45.025522 -123.100653 12 9982ft 280kts
01-Oct-18 10:05 45.100955 -123.072878 11 9982ft 281kts
01-Oct-18 10:06 45.176682 -123.044634 12 9982ft 281kts
01-Oct-18 10:07 45.252348 -123.016223 12 9984ft 281kts
01-Oct-18 10:08 45.327938 -122.988418 11 9987ft 281kts
01-Oct-18 10:09 45.393692 -122.933126 52 9989ft 285kts
01-Oct-18 10:10 45.457789 -122.884740 6 9064ft 260kts
01-Oct-18 10:11 45.528470 -122.871218 5 7566ft 253kts
01-Oct-18 10:12 45.596881 -122.868013 331 6066ft 242kts
01-Oct-18 10:13 45.642303 -122.935595 305 4575ft 235kts
01-Oct-18 10:14 45.680825 -123.005402 305 3976ft 205kts
01-Oct-18 10:15 45.724103 -123.020477 15 3963ft 151kts
01-Oct-18 10:16 45.755386 -122.995458 97 3958ft 122kts
01-Oct-18 10:17 45.736192 -122.954570 130 4020ft 157kts
01-Oct-18 10:18 45.712453 -122.895752 119 3981ft 175kts
01-Oct-18 10:19 45.688668 -122.835371 124 3969ft 173kts
01-Oct-18 10:20 45.663843 -122.774161 121 2908ft 173kts
01-Oct-18 10:21 45.642148 -122.717986 119 1871ft 149kts
01-Oct-18 10:22 45.623443 -122.669436 118 1164ft 131kts
01-Oct-18 10:23 45.607353 -122.627870 118 604ft 107kts
01-Oct-18 10:24 45.594055 -122.593574 117 63ft 86kts
01-Oct-18 10:25 45.589415 -122.583392 204 34ft 4kts
01-Oct-18 10:26 45.589271 -122.583483 203 34ft 2kts
01-Oct-18 10:27 45.586260 -122.579609 204 34ft 18kts
01-Oct-18 10:28 45.585088 -122.579517 70 33ft 0kts
01-Oct-18 10:29 45.585088 -122.579517 70 33ft 0kts
01-Oct-18 10:30 45.585088 -122.579517 70 33ft 0kts

Navigation Log

Ident Type
Flight plan parsing failed, navigation log unavailable